createdAt,value
2022-09-05T00:00:35.260Z,74.94
2022-09-05T00:01:35.231Z,74.94
2022-09-05T00:02:35.268Z,75.04
2022-09-05T00:03:35.252Z,75.14
2022-09-05T00:04:35.271Z,75.24
2022-09-05T00:05:36.417Z,75.24
2022-09-05T00:06:36.122Z,75.34
2022-09-05T00:07:59.408Z,75.38
2022-09-05T00:08:36.121Z,75.38
2022-09-05T00:09:35.129Z,75.38
2022-09-05T00:10:36.177Z,75.18
2022-09-05T00:11:42.604Z,75.18
2022-09-05T00:12:36.061Z,75.18
2022-09-05T00:13:35.055Z,75.18
2022-09-05T00:15:17.087Z,75.18
2022-09-05T00:15:36.073Z,75.38
2022-09-05T00:16:35.012Z,75.68
2022-09-05T00:18:06.518Z,75.78
2022-09-05T00:24:17.051Z,75.68
2022-09-05T00:24:19.105Z,75.88
2022-09-05T00:24:23.270Z,75.78
2022-09-05T00:24:28.687Z,76.18
2022-09-05T00:24:31.894Z,75.98
2022-09-05T00:24:34.044Z,76.32
2022-09-05T00:24:51.402Z,76.52
2022-09-05T00:25:36.226Z,76.62
2022-09-05T00:26:34.964Z,76.62
2022-09-05T00:27:34.944Z,76.52
2022-09-05T00:28:34.904Z,76.52
2022-09-05T00:31:05.375Z,76.52
2022-09-05T00:31:07.074Z,76.62
2022-09-05T00:31:54.175Z,76.72
2022-09-05T00:32:35.980Z,76.82
2022-09-05T00:33:34.833Z,76.82
2022-09-05T00:34:46.493Z,76.62
2022-09-05T00:35:35.800Z,76.52
2022-09-05T00:36:34.813Z,76.42
2022-09-05T00:37:34.824Z,76.32
2022-09-05T00:38:36.983Z,76.21
2022-09-05T00:39:34.813Z,76.12
2022-09-05T00:40:34.795Z,76.32
2022-09-05T00:41:34.765Z,76.42
2022-09-05T00:42:34.743Z,76.52
2022-09-05T00:43:34.753Z,76.72
2022-09-05T00:44:34.741Z,76.92
2022-09-05T00:45:34.774Z,76.92
2022-09-05T00:46:34.796Z,76.72
2022-09-05T00:47:34.705Z,76.72
2022-09-05T00:48:34.695Z,76.92
2022-09-05T00:49:34.655Z,77.02
2022-09-05T00:50:34.664Z,77.26
2022-09-05T00:51:35.124Z,77.46
2022-09-05T00:52:34.615Z,77.56
2022-09-05T00:53:34.624Z,77.56
2022-09-05T00:54:40.992Z,77.66
2022-09-05T00:55:35.584Z,77.76
2022-09-05T00:56:34.572Z,77.76
2022-09-05T00:57:34.603Z,77.76
2022-09-05T00:58:34.545Z,77.76
2022-09-05T00:59:34.534Z,77.86
2022-09-05T01:00:34.534Z,77.76
2022-09-05T01:01:34.666Z,77.76
2022-09-05T01:02:37.923Z,77.90
2022-09-05T01:03:35.552Z,77.90
2022-09-05T01:04:34.515Z,77.90
2022-09-05T01:05:34.474Z,77.80
2022-09-05T01:06:34.462Z,77.80
2022-09-05T01:07:34.454Z,77.90
2022-09-05T01:08:34.505Z,77.80
2022-09-05T01:09:34.453Z,77.90
2022-09-05T01:10:34.427Z,77.80
2022-09-05T01:11:35.416Z,77.59
2022-09-05T01:12:34.425Z,77.59
2022-09-05T01:13:34.392Z,77.46
2022-09-05T01:14:34.377Z,77.36
2022-09-05T01:15:34.406Z,77.26
2022-09-05T01:16:34.385Z,77.36
2022-09-05T01:17:34.395Z,77.36
2022-09-05T01:18:34.334Z,77.46
2022-09-05T01:19:34.354Z,77.46
2022-09-05T01:20:38.123Z,77.56
2022-09-05T01:21:34.326Z,77.56
2022-09-05T01:22:34.286Z,77.46
2022-09-05T01:23:34.316Z,77.46
2022-09-05T01:24:34.266Z,77.36
2022-09-05T01:25:34.266Z,77.16
2022-09-05T01:26:34.242Z,77.16
2022-09-05T01:28:21.703Z,77.16
2022-09-05T01:29:15.344Z,77.16
2022-09-05T01:29:35.265Z,77.16
2022-09-05T01:30:34.205Z,77.06
2022-09-05T01:31:34.226Z,76.96
2022-09-05T01:32:34.185Z,76.96
2022-09-05T01:33:34.176Z,77.16
2022-09-05T01:34:34.158Z,77.26
2022-09-05T01:35:34.225Z,77.26
2022-09-05T01:36:34.135Z,77.26
2022-09-05T01:37:34.456Z,77.46
2022-09-05T01:38:34.115Z,77.56
2022-09-05T01:40:11.921Z,77.56
2022-09-05T01:40:35.194Z,77.66
2022-09-05T01:41:34.077Z,77.86
2022-09-05T01:42:34.086Z,77.86
2022-09-05T01:43:34.074Z,77.96
2022-09-05T01:44:34.041Z,77.90
2022-09-05T01:45:38.708Z,77.90
2022-09-05T01:46:35.274Z,77.90
2022-09-05T01:47:34.060Z,78.10
2022-09-05T01:48:33.997Z,78.10
2022-09-05T01:49:34.006Z,78.30
2022-09-05T01:50:33.986Z,78.20
2022-09-05T01:51:33.978Z,78.20
2022-09-05T01:52:34.027Z,78.30
2022-09-05T01:53:33.946Z,78.40
2022-09-05T01:54:33.949Z,78.40
2022-09-05T01:56:01.939Z,78.30
2022-09-05T01:56:34.916Z,78.40
2022-09-05T01:57:33.936Z,78.40
2022-09-05T01:58:33.887Z,78.40
2022-09-05T01:59:33.887Z,78.40
2022-09-05T02:00:33.867Z,78.40
2022-09-05T02:01:34.006Z,78.50
2022-09-05T02:02:34.044Z,78.54
2022-09-05T02:03:33.848Z,78.44
2022-09-05T02:04:33.827Z,78.54
2022-09-05T02:05:48.519Z,78.44
2022-09-05T02:06:34.847Z,78.54
2022-09-05T02:07:33.807Z,78.50
2022-09-05T02:08:33.818Z,78.40
2022-09-05T02:09:33.779Z,78.30
2022-09-05T02:10:33.757Z,78.30
2022-09-05T02:11:35.689Z,78.40
2022-09-05T02:12:33.746Z,78.50
2022-09-05T02:13:33.757Z,78.50
2022-09-05T02:14:34.675Z,78.60
2022-09-05T02:15:33.718Z,78.60
2022-09-05T02:16:33.698Z,78.70
2022-09-05T02:17:51.186Z,78.70
2022-09-05T02:18:34.708Z,78.70
2022-09-05T02:19:33.678Z,78.70
2022-09-05T02:20:33.697Z,78.70
2022-09-05T02:21:33.657Z,78.74
2022-09-05T02:22:34.639Z,78.94
2022-09-05T02:23:41.599Z,79.04
2022-09-05T02:24:34.737Z,79.04
2022-09-05T02:26:02.983Z,79.14
2022-09-05T02:26:34.588Z,79.14
2022-09-05T02:28:03.682Z,79.04
2022-09-05T02:28:34.578Z,79.00
2022-09-05T02:29:33.809Z,78.90
2022-09-05T02:30:33.593Z,78.80
2022-09-05T02:31:33.568Z,78.50
2022-09-05T02:32:33.528Z,78.50
2022-09-05T02:33:34.539Z,78.60
2022-09-05T02:34:33.527Z,78.90
2022-09-05T02:35:33.489Z,79.00
2022-09-05T02:36:33.520Z,79.00
2022-09-05T02:38:15.635Z,79.00
2022-09-05T02:41:03.097Z,78.90
2022-09-05T02:45:01.889Z,78.90
2022-09-05T02:45:06.826Z,78.90
2022-09-05T02:45:14.648Z,78.90
2022-09-05T02:45:18.301Z,78.90
2022-09-05T02:45:20.533Z,78.90
2022-09-05T02:45:23.789Z,78.90
2022-09-05T02:45:34.860Z,79.00
2022-09-05T02:46:33.537Z,78.80
2022-09-05T02:47:33.389Z,78.60
2022-09-05T02:48:33.348Z,78.70
2022-09-05T02:52:36.687Z,78.70
2022-09-05T02:57:21.599Z,78.80
2022-09-05T02:57:23.823Z,78.80
2022-09-05T02:57:25.128Z,78.80
2022-09-05T02:57:37.625Z,78.80
2022-09-05T02:57:39.664Z,78.70
2022-09-05T02:57:40.795Z,78.80
2022-09-05T02:57:45.751Z,78.60
2022-09-05T02:58:07.275Z,78.46
2022-09-05T02:58:53.254Z,78.46
2022-09-05T02:59:36.451Z,78.46
2022-09-05T03:00:33.418Z,78.56
2022-09-05T03:01:33.280Z,78.66
2022-09-05T03:02:33.221Z,78.66
2022-09-05T03:03:33.340Z,78.66
2022-09-05T03:04:33.188Z,78.66
2022-09-05T03:05:33.191Z,78.66
2022-09-05T03:06:35.110Z,78.66
2022-09-05T03:07:33.157Z,78.56
2022-09-05T03:08:33.120Z,78.77
2022-09-05T03:09:33.150Z,78.86
2022-09-05T03:10:53.722Z,78.86
2022-09-05T03:11:34.100Z,78.97
2022-09-05T03:12:33.090Z,78.97
2022-09-05T03:13:33.081Z,78.86
2022-09-05T03:14:33.098Z,78.77
2022-09-05T03:15:33.080Z,78.73
2022-09-05T03:16:33.077Z,78.83
2022-09-05T03:17:34.060Z,78.93
2022-09-05T03:18:33.360Z,79.43
2022-09-05T03:19:33.031Z,79.03
2022-09-05T03:20:33.065Z,78.73
2022-09-05T03:21:33.023Z,78.53
2022-09-05T03:22:36.839Z,78.53
2022-09-05T03:23:33.383Z,78.42
2022-09-05T03:24:32.950Z,78.93
2022-09-05T03:25:32.958Z,78.73
2022-09-05T03:26:32.972Z,78.42
2022-09-05T03:27:32.992Z,78.22
2022-09-05T03:28:32.951Z,77.83
2022-09-05T03:29:32.933Z,77.83
2022-09-05T03:30:32.929Z,77.92
2022-09-05T03:31:32.896Z,77.99
2022-09-05T03:32:33.012Z,78.09
2022-09-05T03:33:32.932Z,78.09
2022-09-05T03:34:32.881Z,77.89
2022-09-05T03:35:32.873Z,77.99
2022-09-05T03:36:32.832Z,77.79
2022-09-05T03:37:32.822Z,78.09
2022-09-05T03:38:32.809Z,78.09
2022-09-05T03:39:32.888Z,78.53
2022-09-05T03:40:32.791Z,78.89
2022-09-05T03:41:40.193Z,79.09
2022-09-05T03:42:33.771Z,78.69
2022-09-05T03:43:32.767Z,79.19
2022-09-05T03:44:33.122Z,79.69
2022-09-05T03:45:36.934Z,79.60
2022-09-05T03:46:32.721Z,79.49
2022-09-05T03:47:32.773Z,78.69
2022-09-05T03:48:32.702Z,78.39
2022-09-05T03:52:53.441Z,79.69
2022-09-05T03:57:04.605Z,78.99
2022-09-05T03:57:06.020Z,79.05
2022-09-05T03:57:14.766Z,79.46
2022-09-05T03:57:16.113Z,77.95
2022-09-05T03:57:18.914Z,78.85
2022-09-05T03:57:23.884Z,78.55
2022-09-05T03:57:27.459Z,77.15
2022-09-05T03:57:41.889Z,77.25
2022-09-05T03:59:34.640Z,76.45
2022-09-05T04:00:32.609Z,77.25
2022-09-05T04:04:22.745Z,77.85
2022-09-05T04:07:44.169Z,77.85
2022-09-05T04:08:11.159Z,78.25
2022-09-05T04:08:14.679Z,78.75
2022-09-05T04:08:17.420Z,77.85
2022-09-05T04:08:18.931Z,78.42
2022-09-05T04:08:31.042Z,77.25
2022-09-05T04:08:41.802Z,77.05
2022-09-05T04:09:50.004Z,76.65
2022-09-05T04:10:33.635Z,76.75
2022-09-05T04:11:32.454Z,77.25
2022-09-05T04:12:32.443Z,77.28
2022-09-05T04:13:32.474Z,77.28
2022-09-05T04:14:32.414Z,78.69
2022-09-05T04:15:32.414Z,78.09
2022-09-05T04:16:32.471Z,78.69
2022-09-05T04:17:32.384Z,79.19
2022-09-05T04:18:33.457Z,78.69
2022-09-05T04:19:32.403Z,78.03
2022-09-05T04:20:32.374Z,77.42
2022-09-05T04:21:32.354Z,77.32
2022-09-05T04:22:32.327Z,77.32
2022-09-05T04:23:32.325Z,77.62
2022-09-05T04:24:32.312Z,77.92
2022-09-05T04:25:32.344Z,78.12
2022-09-05T04:26:32.274Z,78.12
2022-09-05T04:27:32.281Z,77.92
2022-09-05T04:28:32.262Z,77.83
2022-09-05T04:29:32.344Z,77.83
2022-09-05T04:30:38.277Z,77.76
2022-09-05T04:31:33.355Z,77.76
2022-09-05T04:32:32.260Z,77.86
2022-09-05T04:33:37.028Z,77.96
2022-09-05T04:34:33.194Z,77.96
2022-09-05T04:35:32.223Z,77.96
2022-09-05T04:36:32.242Z,78.27
2022-09-05T04:37:38.292Z,77.76
2022-09-05T04:38:33.176Z,77.96
2022-09-05T04:39:32.267Z,77.86
2022-09-05T04:40:33.061Z,78.27
2022-09-05T04:41:39.863Z,78.77
2022-09-05T04:42:33.105Z,79.27
2022-09-05T04:43:32.095Z,79.57
2022-09-05T04:44:32.095Z,79.77
2022-09-05T04:45:32.135Z,79.61
2022-09-05T04:46:32.115Z,79.41
2022-09-05T04:47:33.064Z,79.71
2022-09-05T04:48:32.045Z,79.61
2022-09-05T04:49:32.046Z,79.71
2022-09-05T04:50:37.852Z,79.61
2022-09-05T04:51:33.076Z,79.50
2022-09-05T04:52:32.032Z,79.61
2022-09-05T04:53:32.003Z,79.50
2022-09-05T04:54:31.984Z,80.01
2022-09-05T04:55:31.978Z,82.62
2022-09-05T04:56:31.954Z,82.32
2022-09-05T04:57:31.954Z,81.32
2022-09-05T04:58:54.209Z,79.91
2022-09-05T05:04:59.503Z,78.80
2022-09-05T05:06:00.143Z,79.30
2022-09-05T05:06:01.154Z,78.80
2022-09-05T05:06:03.586Z,78.60
2022-09-05T05:06:08.227Z,78.70
2022-09-05T05:06:11.229Z,78.90
2022-09-05T05:06:15.110Z,79.00
2022-09-05T05:06:45.127Z,79.00
2022-09-05T05:07:32.957Z,79.10
2022-09-05T05:08:39.168Z,78.90
2022-09-05T05:09:32.856Z,78.80
2022-09-05T05:11:10.249Z,79.10
2022-09-05T05:17:55.226Z,78.30
2022-09-05T05:17:57.332Z,78.30
2022-09-05T05:18:00.789Z,78.70
2022-09-05T05:18:02.720Z,79.00
2022-09-05T05:18:08.138Z,78.10
2022-09-05T05:18:08.631Z,78.30
2022-09-05T05:18:13.109Z,78.20
2022-09-05T05:18:39.701Z,78.20
2022-09-05T05:19:32.795Z,78.40
2022-09-05T05:20:42.673Z,78.50
2022-09-05T05:21:32.725Z,78.30
2022-09-05T05:22:31.697Z,78.30
2022-09-05T05:23:31.691Z,78.20
2022-09-05T05:24:31.668Z,78.00
2022-09-05T05:25:31.685Z,77.80
2022-09-05T05:26:31.637Z,78.00
2022-09-05T05:27:31.659Z,78.20
2022-09-05T05:28:31.645Z,78.30
2022-09-05T05:29:31.601Z,78.50
2022-09-05T05:30:31.589Z,78.50
2022-09-05T05:31:31.636Z,78.60
2022-09-05T05:32:45.456Z,78.60
2022-09-05T05:33:32.581Z,78.50
2022-09-05T05:34:31.550Z,78.50
2022-09-05T05:35:31.528Z,78.70
2022-09-05T05:36:31.517Z,78.80
2022-09-05T05:37:34.898Z,78.80
2022-09-05T05:38:31.506Z,78.84
2022-09-05T05:39:31.567Z,78.74
2022-09-05T05:40:31.707Z,78.84
2022-09-05T05:41:32.507Z,78.80
2022-09-05T05:42:34.390Z,78.90
2022-09-05T05:43:31.487Z,78.90
2022-09-05T05:44:31.438Z,79.00
2022-09-05T05:45:31.429Z,79.00
2022-09-05T05:46:31.486Z,79.00
2022-09-05T05:47:38.467Z,78.90
2022-09-05T05:48:31.435Z,78.90
2022-09-05T05:49:31.376Z,78.90
2022-09-05T05:50:31.367Z,78.90
2022-09-05T05:51:38.322Z,78.80
2022-09-05T05:52:32.337Z,78.50
2022-09-05T05:53:43.129Z,78.50
2022-09-05T05:54:32.376Z,78.06
2022-09-05T05:55:51.286Z,77.96
2022-09-05T05:56:32.297Z,77.86
2022-09-05T05:57:31.287Z,77.66
2022-09-05T05:58:32.884Z,77.86
2022-09-05T05:59:31.297Z,77.52
2022-09-05T06:00:31.316Z,77.42
2022-09-05T06:01:38.001Z,77.32
2022-09-05T06:02:32.318Z,77.52
2022-09-05T06:03:31.326Z,77.52
2022-09-05T06:04:31.227Z,77.42
2022-09-05T06:05:31.308Z,77.39
2022-09-05T06:06:31.207Z,76.89
2022-09-05T06:07:39.399Z,77.09
2022-09-05T06:12:52.192Z,77.19
2022-09-05T06:14:49.880Z,76.89
2022-09-05T06:14:50.558Z,76.98
2022-09-05T06:14:55.117Z,77.39
2022-09-05T06:14:56.531Z,76.98
2022-09-05T06:15:05.587Z,77.28
2022-09-05T06:15:06.398Z,77.19
2022-09-05T06:15:32.996Z,77.45
2022-09-05T06:16:31.149Z,76.65
2022-09-05T06:17:31.193Z,76.85
2022-09-05T06:18:31.077Z,76.45
2022-09-05T06:20:01.773Z,76.45
2022-09-05T06:22:05.519Z,76.34
2022-09-05T06:22:09.154Z,76.34
2022-09-05T06:22:32.047Z,76.34
2022-09-05T06:23:39.374Z,75.95
2022-09-05T06:24:31.998Z,75.95
2022-09-05T06:25:31.058Z,75.64
2022-09-05T06:26:30.978Z,75.64
2022-09-05T06:27:30.996Z,75.34
2022-09-05T06:28:30.968Z,75.34
2022-09-05T06:29:34.250Z,75.31
2022-09-05T06:30:31.938Z,74.80
2022-09-05T06:31:31.876Z,74.60
2022-09-05T06:32:35.017Z,74.51
2022-09-05T06:33:30.897Z,74.30
2022-09-05T06:34:35.406Z,74.10
2022-09-05T06:35:31.929Z,74.01
2022-09-05T06:36:30.869Z,73.90
2022-09-05T06:37:30.849Z,74.01
2022-09-05T06:38:30.930Z,73.86
2022-09-05T06:39:30.860Z,73.77
2022-09-05T06:40:32.299Z,73.67
2022-09-05T06:41:30.849Z,73.57
2022-09-05T06:42:43.538Z,73.36
2022-09-05T06:43:31.801Z,73.16
2022-09-05T06:44:30.789Z,73.16
2022-09-05T06:45:30.759Z,72.93
2022-09-05T06:46:54.216Z,72.73
2022-09-05T06:47:34.503Z,72.53
2022-09-05T06:48:46.438Z,72.13
2022-09-05T06:49:37.380Z,72.03
2022-09-05T06:50:49.755Z,71.93
2022-09-05T06:51:31.729Z,71.83
2022-09-05T06:52:30.690Z,71.73
2022-09-05T06:53:31.002Z,71.63
2022-09-05T06:54:32.552Z,71.43
2022-09-05T06:55:30.731Z,71.43
2022-09-05T06:56:30.649Z,71.43
2022-09-05T06:57:30.647Z,71.33
2022-09-05T06:58:30.631Z,71.19
2022-09-05T06:59:30.649Z,71.19
2022-09-05T07:00:30.638Z,71.00
2022-09-05T07:01:35.720Z,70.89
2022-09-05T07:02:58.100Z,70.89
2022-09-05T07:03:32.346Z,70.89
2022-09-05T07:05:23.260Z,70.89
2022-09-05T07:05:42.627Z,70.69
2022-09-05T07:07:00.986Z,70.50
2022-09-05T07:07:31.551Z,70.50
2022-09-05T07:08:36.066Z,70.39
2022-09-05T07:09:31.510Z,70.29
2022-09-05T07:10:39.257Z,70.26
2022-09-05T07:11:31.521Z,70.16
2022-09-05T07:12:30.710Z,70.16
2022-09-05T07:13:30.462Z,70.26
2022-09-05T07:14:30.459Z,70.06
2022-09-05T07:15:30.440Z,69.96
2022-09-05T07:16:37.625Z,69.86
2022-09-05T07:17:31.471Z,69.86
2022-09-05T07:18:30.412Z,69.96
2022-09-05T07:19:30.391Z,69.86
2022-09-05T07:20:30.389Z,69.76
2022-09-05T07:21:30.378Z,69.76
2022-09-05T07:22:48.111Z,69.76
2022-09-05T07:24:05.711Z,69.66
2022-09-05T07:24:53.379Z,69.53
2022-09-05T07:25:37.207Z,69.43
2022-09-05T07:26:51.744Z,69.23
2022-09-05T07:27:31.312Z,68.93
2022-09-05T07:28:30.580Z,68.62
2022-09-05T07:29:30.331Z,68.43
2022-09-05T07:30:30.292Z,68.32
2022-09-05T07:31:37.432Z,68.13
2022-09-05T07:32:31.260Z,68.02
2022-09-05T07:33:30.265Z,67.89
2022-09-05T07:34:30.253Z,67.79
2022-09-05T07:35:34.649Z,67.79
2022-09-05T07:36:31.263Z,67.69
2022-09-05T07:37:30.214Z,67.59
2022-09-05T07:38:38.122Z,67.59
2022-09-05T07:39:31.210Z,67.59
2022-09-05T07:40:30.285Z,67.49
2022-09-05T07:41:30.159Z,67.29
2022-09-05T07:42:30.162Z,67.36
2022-09-05T07:43:30.152Z,67.26
2022-09-05T07:44:30.132Z,67.26
2022-09-05T07:45:30.151Z,67.26
2022-09-05T07:46:30.142Z,67.26
2022-09-05T07:47:30.095Z,67.16
2022-09-05T07:48:35.103Z,67.36
2022-09-05T07:49:31.323Z,67.36
2022-09-05T07:54:07.370Z,67.56
2022-09-05T07:56:46.434Z,67.03
2022-09-05T07:56:47.473Z,67.33
2022-09-05T07:56:54.565Z,66.93
2022-09-05T07:57:04.127Z,66.33
2022-09-05T07:57:07.809Z,66.53
2022-09-05T07:57:07.932Z,66.83
2022-09-05T07:57:32.336Z,66.23
2022-09-05T07:58:30.974Z,66.23
2022-09-05T07:59:29.966Z,66.23
2022-09-05T08:00:29.976Z,66.33
2022-09-05T08:01:29.990Z,66.39
2022-09-05T08:02:29.964Z,66.39
2022-09-05T08:03:29.925Z,66.20
2022-09-05T08:04:29.966Z,66.09
2022-09-05T08:05:35.003Z,66.20
2022-09-05T08:06:58.589Z,66.39
2022-09-05T08:07:49.412Z,66.00
2022-09-05T08:08:30.915Z,65.40
2022-09-05T08:10:08.439Z,65.56
2022-09-05T08:10:35.695Z,65.56
2022-09-05T08:11:30.843Z,65.56
2022-09-05T08:12:29.852Z,65.47
2022-09-05T08:13:30.814Z,65.47
2022-09-05T08:14:44.996Z,65.26
2022-09-05T08:16:09.822Z,65.17
2022-09-05T08:16:30.819Z,65.07
2022-09-05T08:17:30.049Z,64.74
2022-09-05T08:18:29.779Z,64.64
2022-09-05T08:19:29.847Z,64.44
2022-09-05T08:20:29.776Z,64.34
2022-09-05T08:21:29.726Z,64.34
2022-09-05T08:22:29.714Z,64.24
2022-09-05T08:23:29.755Z,64.14
2022-09-05T08:24:29.696Z,63.81
2022-09-05T08:25:36.326Z,63.91
2022-09-05T08:26:30.694Z,63.61
2022-09-05T08:27:29.672Z,63.61
2022-09-05T08:28:38.895Z,63.61
2022-09-05T08:29:30.727Z,63.41
2022-09-05T08:30:29.637Z,63.31
2022-09-05T08:31:29.681Z,63.28
2022-09-05T08:32:33.405Z,62.98
2022-09-05T08:33:30.608Z,62.98
2022-09-05T08:34:44.877Z,62.59
2022-09-05T08:35:30.576Z,62.29
2022-09-05T08:36:29.569Z,62.18
2022-09-05T08:37:29.555Z,62.29
2022-09-05T08:38:29.537Z,62.18
2022-09-05T08:39:30.646Z,62.15
2022-09-05T08:40:29.527Z,62.05
2022-09-05T08:41:51.331Z,62.35
2022-09-05T08:42:30.547Z,62.15
2022-09-05T08:46:39.415Z,61.96
2022-09-05T08:46:41.096Z,61.53
2022-09-05T08:46:43.265Z,61.66
2022-09-05T08:46:44.680Z,61.66
2022-09-05T08:47:32.460Z,61.43
2022-09-05T08:48:30.448Z,61.43
2022-09-05T08:49:36.420Z,61.23
2022-09-05T08:50:30.470Z,61.23
2022-09-05T08:51:29.406Z,61.13
2022-09-05T08:52:29.476Z,60.53
2022-09-05T08:53:46.272Z,60.53
2022-09-05T08:54:30.378Z,60.30
2022-09-05T08:55:29.368Z,60.30
2022-09-05T08:56:29.358Z,60.00
2022-09-05T08:57:29.357Z,59.70
2022-09-05T08:58:29.337Z,59.70
2022-09-05T08:59:32.714Z,59.21
2022-09-05T09:00:31.348Z,59.11
2022-09-05T09:01:29.358Z,58.81
2022-09-05T09:02:47.076Z,58.78
2022-09-05T09:03:30.360Z,58.88
2022-09-05T09:04:59.256Z,58.88
2022-09-05T09:05:58.097Z,58.78
2022-09-05T09:06:30.251Z,58.48
2022-09-05T09:07:51.186Z,58.09
2022-09-05T09:08:30.230Z,57.76
2022-09-05T09:09:29.268Z,57.46
2022-09-05T09:10:29.230Z,57.66
2022-09-05T09:11:29.204Z,57.56
2022-09-05T09:12:29.200Z,57.56
2022-09-05T09:13:29.200Z,57.66
2022-09-05T09:14:30.888Z,57.34
2022-09-05T09:15:29.167Z,56.84
2022-09-05T09:16:29.175Z,56.94
2022-09-05T09:17:29.229Z,56.64
2022-09-05T09:18:32.905Z,56.64
2022-09-05T09:19:30.148Z,56.24
2022-09-05T09:20:29.162Z,55.65
2022-09-05T09:21:29.087Z,54.82
2022-09-05T09:22:29.081Z,54.93
2022-09-05T09:23:31.723Z,54.72
2022-09-05T09:24:29.050Z,54.63
2022-09-05T09:25:33.167Z,54.43
2022-09-05T09:26:29.065Z,53.93
2022-09-05T09:28:43.666Z,53.63
2022-09-05T09:28:47.423Z,53.44
2022-09-05T09:29:29.999Z,53.01
2022-09-05T09:30:29.032Z,52.61
2022-09-05T09:32:40.990Z,52.61
2022-09-05T09:33:39.322Z,52.42
2022-09-05T09:34:41.860Z,51.82
2022-09-05T09:35:40.299Z,51.12
2022-09-05T09:36:39.291Z,50.70
2022-09-05T09:37:50.062Z,50.21
2022-09-05T09:38:40.272Z,50.31
2022-09-05T09:39:39.944Z,50.21
2022-09-05T09:40:39.241Z,49.21
2022-09-05T09:41:39.230Z,49.32
2022-09-05T09:42:39.263Z,49.51
2022-09-05T09:43:39.250Z,49.29
2022-09-05T09:44:40.211Z,49.19
2022-09-05T09:45:39.191Z,48.50
2022-09-05T09:46:39.687Z,49.49
2022-09-05T09:47:39.170Z,48.90
2022-09-05T09:48:39.161Z,48.50
2022-09-05T09:49:39.180Z,48.80
2022-09-05T09:50:41.963Z,49.09
2022-09-05T09:51:40.120Z,48.60
2022-09-05T09:52:39.120Z,48.99
2022-09-05T09:53:39.101Z,48.50
2022-09-05T09:54:39.124Z,48.90
2022-09-05T09:55:39.162Z,48.90
2022-09-05T09:56:39.071Z,48.87
2022-09-05T09:57:39.063Z,48.47
2022-09-05T09:58:39.089Z,48.38
2022-09-05T09:59:54.011Z,48.27
2022-09-05T10:00:40.031Z,47.88
2022-09-05T10:01:39.111Z,47.28
2022-09-05T10:07:17.023Z,46.39
2022-09-05T10:08:32.199Z,46.00
2022-09-05T10:10:36.428Z,46.07
2022-09-05T10:10:38.103Z,46.39
2022-09-05T10:10:46.660Z,46.69
2022-09-05T10:10:49.029Z,47.38
2022-09-05T10:10:49.223Z,46.79
2022-09-05T10:10:54.448Z,46.37
2022-09-05T10:10:58.127Z,46.59
2022-09-05T10:11:53.444Z,46.69
2022-09-05T10:12:39.914Z,46.39
2022-09-05T10:13:38.896Z,46.49
2022-09-05T10:14:50.786Z,46.98
2022-09-05T10:15:39.916Z,46.39
2022-09-05T10:16:38.864Z,45.48
2022-09-05T10:17:38.884Z,45.18
2022-09-05T10:18:38.850Z,45.38
2022-09-05T10:20:39.829Z,45.75
2022-09-05T10:21:38.815Z,45.65
2022-09-05T10:22:38.839Z,45.36
2022-09-05T10:23:44.972Z,45.26
2022-09-05T10:24:39.785Z,45.06
2022-09-05T10:25:38.773Z,45.26
2022-09-05T10:26:38.767Z,45.45
2022-09-05T10:27:38.755Z,45.36
2022-09-05T10:28:39.775Z,45.04
2022-09-05T10:29:38.870Z,44.94
2022-09-05T10:32:19.333Z,44.84
2022-09-05T10:35:11.195Z,44.74
2022-09-05T10:35:13.682Z,44.35
2022-09-05T10:35:16.251Z,44.45
2022-09-05T10:35:17.784Z,44.15
2022-09-05T10:35:39.755Z,44.74
2022-09-05T10:36:38.666Z,44.94
2022-09-05T10:37:38.684Z,44.94
2022-09-05T10:38:38.639Z,44.94
2022-09-05T10:39:38.663Z,45.04
2022-09-05T10:41:06.665Z,45.14
2022-09-05T10:41:39.610Z,44.84
2022-09-05T10:42:59.721Z,45.04
2022-09-05T10:43:39.676Z,45.43
2022-09-05T10:44:38.707Z,44.64
2022-09-05T10:45:39.132Z,44.84
2022-09-05T10:46:53.998Z,44.94
2022-09-05T10:47:39.537Z,45.23
2022-09-05T10:48:38.536Z,45.73
2022-09-05T10:49:38.548Z,45.93
2022-09-05T10:50:38.520Z,45.63
2022-09-05T10:51:38.508Z,45.65
2022-09-05T10:52:38.528Z,45.73
2022-09-05T10:53:39.754Z,46.23
2022-09-05T10:54:38.468Z,45.63
2022-09-05T10:55:38.490Z,45.23
2022-09-05T10:56:38.448Z,45.53
2022-09-05T10:57:38.438Z,45.23
2022-09-05T10:59:50.114Z,45.14
2022-09-05T11:02:20.159Z,44.82
2022-09-05T11:02:21.586Z,45.12
2022-09-05T11:02:25.904Z,45.01
2022-09-05T11:02:43.880Z,45.12
2022-09-05T11:03:39.483Z,44.82
2022-09-05T11:04:46.665Z,45.09
2022-09-05T11:05:47.975Z,44.60
2022-09-05T11:06:38.360Z,44.31
2022-09-05T11:07:38.339Z,44.20
2022-09-05T11:08:38.340Z,43.98
2022-09-05T11:09:38.395Z,43.98
2022-09-05T11:10:38.310Z,43.88
2022-09-05T11:11:38.301Z,43.88
2022-09-05T11:12:38.291Z,43.39
2022-09-05T11:13:38.275Z,43.49
2022-09-05T11:14:38.290Z,43.49
2022-09-05T11:15:43.886Z,43.66
2022-09-05T11:16:39.296Z,43.17
2022-09-05T11:17:38.241Z,43.17
2022-09-05T11:18:55.675Z,43.17
2022-09-05T11:19:39.219Z,42.97
2022-09-05T11:20:38.210Z,42.97
2022-09-05T11:21:38.191Z,42.97
2022-09-05T11:22:38.203Z,42.88
2022-09-05T11:23:38.699Z,42.97
2022-09-05T11:24:38.182Z,42.97
2022-09-05T11:25:40.891Z,42.88
2022-09-05T11:26:38.172Z,42.78
2022-09-05T11:27:38.129Z,42.38
2022-09-05T11:28:52.383Z,42.68
2022-09-05T11:29:39.102Z,42.78
2022-09-05T11:30:38.886Z,42.78
2022-09-05T11:32:10.494Z,42.78
2022-09-05T11:39:02.118Z,42.58
2022-09-05T11:39:47.612Z,42.48
2022-09-05T11:39:51.370Z,42.26
2022-09-05T11:39:53.477Z,42.78
2022-09-05T11:40:00.115Z,42.48
2022-09-05T11:40:03.913Z,42.56
2022-09-05T11:40:09.884Z,42.76
2022-09-05T11:40:10.677Z,42.68
2022-09-05T11:40:52.672Z,43.05
2022-09-05T11:41:39.085Z,42.26
2022-09-05T11:42:37.981Z,42.36
2022-09-05T11:43:37.963Z,42.46
2022-09-05T11:44:37.954Z,42.46
2022-09-05T11:45:37.944Z,42.46
2022-09-05T11:46:37.961Z,42.36
2022-09-05T11:48:34.294Z,42.24
2022-09-05T11:49:34.265Z,42.44
2022-09-05T11:50:34.255Z,42.24
2022-09-05T11:51:34.467Z,41.95
2022-09-05T11:52:34.234Z,41.25
2022-09-05T11:53:34.275Z,41.16
2022-09-05T11:54:34.213Z,40.56
2022-09-05T11:55:34.214Z,40.47
2022-09-05T11:56:39.659Z,39.97
2022-09-05T11:57:35.180Z,40.17
2022-09-05T11:58:44.809Z,39.87
2022-09-05T11:59:35.214Z,39.87
2022-09-05T12:00:34.575Z,39.87
2022-09-05T12:01:41.199Z,40.37
2022-09-05T12:02:37.742Z,40.47
2022-09-05T12:03:58.869Z,40.48
2022-09-05T12:04:36.231Z,40.48
2022-09-05T12:05:49.293Z,41.08
2022-09-05T12:06:35.129Z,41.28
2022-09-05T12:07:34.123Z,41.38
2022-09-05T12:08:34.128Z,41.28
2022-09-05T12:09:34.226Z,41.57
2022-09-05T12:10:43.567Z,40.98
2022-09-05T12:11:35.047Z,41.17
2022-09-05T12:12:38.912Z,41.28
2022-09-05T12:13:34.018Z,41.47
2022-09-05T12:14:34.006Z,41.47
2022-09-05T12:15:34.263Z,41.38
2022-09-05T12:16:34.003Z,41.47
2022-09-05T12:17:35.012Z,41.47
2022-09-05T12:18:34.027Z,41.57
2022-09-05T12:19:34.641Z,41.67
2022-09-05T12:20:43.230Z,41.47
2022-09-05T12:21:35.674Z,41.77
2022-09-05T12:22:33.926Z,42.07
2022-09-05T12:23:58.061Z,41.57
2022-09-05T12:25:30.935Z,41.67
2022-09-05T12:27:36.094Z,41.77
2022-09-05T12:27:40.845Z,42.07
2022-09-05T12:27:46.173Z,42.26
2022-09-05T12:29:33.602Z,42.16
2022-09-05T12:29:38.784Z,42.26
2022-09-05T12:30:42.395Z,42.38
2022-09-05T12:32:50.674Z,42.38
2022-09-05T12:35:48.592Z,42.29
2022-09-05T12:36:03.649Z,42.29
2022-09-05T12:36:12.297Z,42.38
2022-09-05T12:36:12.903Z,42.48
2022-09-05T12:40:32.596Z,42.58
2022-09-05T12:41:35.536Z,42.19
2022-09-05T12:41:36.239Z,42.38
2022-09-05T12:41:38.578Z,42.48
2022-09-05T12:41:42.382Z,42.08
2022-09-05T12:42:10.743Z,42.08
2022-09-05T12:42:40.609Z,41.99
2022-09-05T12:44:38.485Z,42.19
2022-09-05T12:44:41.655Z,42.19
2022-09-05T12:45:37.588Z,42.58
2022-09-05T12:46:33.673Z,42.58
2022-09-05T12:47:33.651Z,42.58
2022-09-05T12:48:39.208Z,42.70
2022-09-05T12:49:36.311Z,42.99
2022-09-05T12:50:33.623Z,42.99
2022-09-05T12:51:45.918Z,43.79
2022-09-05T12:52:34.613Z,43.88
2022-09-05T12:53:33.591Z,43.59
2022-09-05T12:54:36.420Z,43.19
2022-09-05T12:55:33.586Z,43.39
2022-09-05T12:58:11.112Z,43.31